sensor_id;sensor_type;location;lat;lon;timestamp;temperature;humidity
17726;DHT22;8983;53.156;17.960;2023-05-10T00:01:35;12.70;66.10
17726;DHT22;8983;53.156;17.960;2023-05-10T00:04:04;12.70;66.20
17726;DHT22;8983;53.156;17.960;2023-05-10T00:06:32;12.60;66.20
17726;DHT22;8983;53.156;17.960;2023-05-10T00:09:01;12.60;66.30
17726;DHT22;8983;53.156;17.960;2023-05-10T00:11:29;12.60;66.40
17726;DHT22;8983;53.156;17.960;2023-05-10T00:13:57;12.60;66.50
17726;DHT22;8983;53.156;17.960;2023-05-10T00:16:25;12.50;66.60
17726;DHT22;8983;53.156;17.960;2023-05-10T00:18:54;12.50;66.60
17726;DHT22;8983;53.156;17.960;2023-05-10T00:21:23;12.50;66.70
17726;DHT22;8983;53.156;17.960;2023-05-10T00:23:51;12.40;66.80
17726;DHT22;8983;53.156;17.960;2023-05-10T00:26:19;12.40;67.00
17726;DHT22;8983;53.156;17.960;2023-05-10T00:28:47;12.40;67.10
17726;DHT22;8983;53.156;17.960;2023-05-10T00:31:15;12.40;67.10
17726;DHT22;8983;53.156;17.960;2023-05-10T00:33:43;12.40;67.20
17726;DHT22;8983;53.156;17.960;2023-05-10T00:36:11;12.30;67.20
17726;DHT22;8983;53.156;17.960;2023-05-10T00:38:41;12.30;67.30
17726;DHT22;8983;53.156;17.960;2023-05-10T00:41:09;12.30;67.50
17726;DHT22;8983;53.156;17.960;2023-05-10T00:43:37;12.20;67.50
17726;DHT22;8983;53.156;17.960;2023-05-10T00:46:06;12.20;67.70
17726;DHT22;8983;53.156;17.960;2023-05-10T00:48:34;12.20;67.70
17726;DHT22;8983;53.156;17.960;2023-05-10T00:51:03;12.10;67.80
17726;DHT22;8983;53.156;17.960;2023-05-10T00:53:31;12.10;67.90
17726;DHT22;8983;53.156;17.960;2023-05-10T00:56:01;12.10;67.90
17726;DHT22;8983;53.156;17.960;2023-05-10T00:58:29;12.00;67.90
17726;DHT22;8983;53.156;17.960;2023-05-10T01:00:58;12.00;68.00
17726;DHT22;8983;53.156;17.960;2023-05-10T01:03:27;12.00;68.10
17726;DHT22;8983;53.156;17.960;2023-05-10T01:05:56;12.00;68.10
17726;DHT22;8983;53.156;17.960;2023-05-10T01:08:24;11.90;68.20
17726;DHT22;8983;53.156;17.960;2023-05-10T01:10:52;11.90;68.30
17726;DHT22;8983;53.156;17.960;2023-05-10T01:13:30;11.80;68.40
17726;DHT22;8983;53.156;17.960;2023-05-10T01:15:59;11.80;68.50
17726;DHT22;8983;53.156;17.960;2023-05-10T01:18:29;11.80;69.40
17726;DHT22;8983;53.156;17.960;2023-05-10T01:21:13;11.70;68.80
17726;DHT22;8983;53.156;17.960;2023-05-10T01:30:09;11.60;69.30
17726;DHT22;8983;53.156;17.960;2023-05-10T01:32:51;11.60;69.50
17726;DHT22;8983;53.156;17.960;2023-05-10T01:35:30;11.50;69.60
17726;DHT22;8983;53.156;17.960;2023-05-10T01:38:04;11.50;69.70
17726;DHT22;8983;53.156;17.960;2023-05-10T01:40:39;11.50;69.90
17726;DHT22;8983;53.156;17.960;2023-05-10T01:43:14;11.40;69.90
17726;DHT22;8983;53.156;17.960;2023-05-10T01:45:53;11.40;70.00
17726;DHT22;8983;53.156;17.960;2023-05-10T01:48:27;11.40;70.10
17726;DHT22;8983;53.156;17.960;2023-05-10T01:50:56;11.40;70.10
17726;DHT22;8983;53.156;17.960;2023-05-10T01:53:26;11.30;70.20
17726;DHT22;8983;53.156;17.960;2023-05-10T01:58:28;11.30;69.70
17726;DHT22;8983;53.156;17.960;2023-05-10T02:00:58;11.30;70.50
17726;DHT22;8983;53.156;17.960;2023-05-10T02:03:30;11.30;70.70
17726;DHT22;8983;53.156;17.960;2023-05-10T02:06:00;11.30;70.70
17726;DHT22;8983;53.156;17.960;2023-05-10T02:08:29;11.30;70.80
17726;DHT22;8983;53.156;17.960;2023-05-10T02:10:58;11.20;70.80
17726;DHT22;8983;53.156;17.960;2023-05-10T02:13:27;11.20;70.90
17726;DHT22;8983;53.156;17.960;2023-05-10T02:15:57;11.20;71.10
17726;DHT22;8983;53.156;17.960;2023-05-10T02:18:28;11.20;71.20
17726;DHT22;8983;53.156;17.960;2023-05-10T02:20:58;11.10;71.30
17726;DHT22;8983;53.156;17.960;2023-05-10T02:23:28;11.10;71.50
17726;DHT22;8983;53.156;17.960;2023-05-10T02:25:58;11.10;71.60
17726;DHT22;8983;53.156;17.960;2023-05-10T02:28:28;11.10;71.70
17726;DHT22;8983;53.156;17.960;2023-05-10T02:30:57;11.10;71.90
17726;DHT22;8983;53.156;17.960;2023-05-10T02:33:26;11.10;71.90
17726;DHT22;8983;53.156;17.960;2023-05-10T02:35:56;11.00;72.00
17726;DHT22;8983;53.156;17.960;2023-05-10T02:38:25;11.00;72.30
17726;DHT22;8983;53.156;17.960;2023-05-10T02:40:55;11.00;72.40
17726;DHT22;8983;53.156;17.960;2023-05-10T02:43:24;11.00;72.50
17726;DHT22;8983;53.156;17.960;2023-05-10T02:45:53;10.90;72.60
17726;DHT22;8983;53.156;17.960;2023-05-10T02:48:21;10.90;72.70
17726;DHT22;8983;53.156;17.960;2023-05-10T02:50:50;10.90;72.80
17726;DHT22;8983;53.156;17.960;2023-05-10T02:53:26;10.90;72.90
17726;DHT22;8983;53.156;17.960;2023-05-10T02:56:00;10.90;73.00
17726;DHT22;8983;53.156;17.960;2023-05-10T02:58:30;10.90;73.10
17726;DHT22;8983;53.156;17.960;2023-05-10T03:00:59;11.00;73.30
17726;DHT22;8983;53.156;17.960;2023-05-10T03:03:27;10.90;73.40
17726;DHT22;8983;53.156;17.960;2023-05-10T03:05:55;10.90;73.50
17726;DHT22;8983;53.156;17.960;2023-05-10T03:08:26;10.80;73.60
17726;DHT22;8983;53.156;17.960;2023-05-10T03:11:12;10.90;73.80
17726;DHT22;8983;53.156;17.960;2023-05-10T03:13:47;10.80;73.80
17726;DHT22;8983;53.156;17.960;2023-05-10T03:16:22;10.80;73.90
17726;DHT22;8983;53.156;17.960;2023-05-10T03:18:56;10.80;74.00
17726;DHT22;8983;53.156;17.960;2023-05-10T03:21:29;10.80;74.10
17726;DHT22;8983;53.156;17.960;2023-05-10T03:24:02;10.80;74.20
17726;DHT22;8983;53.156;17.960;2023-05-10T03:26:33;10.80;74.30
17726;DHT22;8983;53.156;17.960;2023-05-10T03:29:03;10.80;74.40
17726;DHT22;8983;53.156;17.960;2023-05-10T03:31:32;10.80;74.50
17726;DHT22;8983;53.156;17.960;2023-05-10T03:34:00;10.80;74.50
17726;DHT22;8983;53.156;17.960;2023-05-10T03:36:29;10.80;74.60
17726;DHT22;8983;53.156;17.960;2023-05-10T03:38:58;10.80;74.70
17726;DHT22;8983;53.156;17.960;2023-05-10T03:41:26;10.80;74.80
17726;DHT22;8983;53.156;17.960;2023-05-10T03:43:55;10.80;74.90
17726;DHT22;8983;53.156;17.960;2023-05-10T03:46:23;10.80;75.00
17726;DHT22;8983;53.156;17.960;2023-05-10T03:48:51;10.80;75.10
17726;DHT22;8983;53.156;17.960;2023-05-10T03:51:19;10.80;75.10
17726;DHT22;8983;53.156;17.960;2023-05-10T03:53:47;10.80;75.20
17726;DHT22;8983;53.156;17.960;2023-05-10T03:56:17;10.80;75.30
17726;DHT22;8983;53.156;17.960;2023-05-10T03:58:45;10.90;75.40
17726;DHT22;8983;53.156;17.960;2023-05-10T04:01:13;10.90;75.40
17726;DHT22;8983;53.156;17.960;2023-05-10T04:03:41;10.90;75.40
17726;DHT22;8983;53.156;17.960;2023-05-10T04:06:09;10.90;75.50
17726;DHT22;8983;53.156;17.960;2023-05-10T04:08:38;10.90;75.40
17726;DHT22;8983;53.156;17.960;2023-05-10T04:11:07;10.90;75.50
17726;DHT22;8983;53.156;17.960;2023-05-10T04:13:37;11.00;75.60
17726;DHT22;8983;53.156;17.960;2023-05-10T04:16:05;11.00;75.70
17726;DHT22;8983;53.156;17.960;2023-05-10T04:18:33;11.00;75.80
17726;DHT22;8983;53.156;17.960;2023-05-10T04:21:01;11.00;75.80
17726;DHT22;8983;53.156;17.960;2023-05-10T04:23:30;11.10;75.90
17726;DHT22;8983;53.156;17.960;2023-05-10T04:25:59;11.00;75.80
17726;DHT22;8983;53.156;17.960;2023-05-10T04:28:28;11.10;75.90
17726;DHT22;8983;53.156;17.960;2023-05-10T04:31:02;11.20;76.00
17726;DHT22;8983;53.156;17.960;2023-05-10T04:33:30;11.20;76.00
17726;DHT22;8983;53.156;17.960;2023-05-10T04:35:59;11.20;75.90
17726;DHT22;8983;53.156;17.960;2023-05-10T04:38:27;11.20;75.80
17726;DHT22;8983;53.156;17.960;2023-05-10T04:41:03;11.20;75.70
17726;DHT22;8983;53.156;17.960;2023-05-10T04:43:32;11.20;75.60
17726;DHT22;8983;53.156;17.960;2023-05-10T04:46:01;11.20;75.60
17726;DHT22;8983;53.156;17.960;2023-05-10T04:48:30;11.20;75.60
17726;DHT22;8983;53.156;17.960;2023-05-10T04:50:58;11.20;75.60
17726;DHT22;8983;53.156;17.960;2023-05-10T04:53:26;11.30;75.50
17726;DHT22;8983;53.156;17.960;2023-05-10T04:55:54;11.30;75.40
17726;DHT22;8983;53.156;17.960;2023-05-10T04:58:22;11.30;75.40
17726;DHT22;8983;53.156;17.960;2023-05-10T05:00:50;11.30;75.20
17726;DHT22;8983;53.156;17.960;2023-05-10T05:03:19;11.40;75.20
17726;DHT22;8983;53.156;17.960;2023-05-10T05:05:48;11.40;75.10
17726;DHT22;8983;53.156;17.960;2023-05-10T05:08:16;11.40;75.00
17726;DHT22;8983;53.156;17.960;2023-05-10T05:10:44;11.50;75.10
17726;DHT22;8983;53.156;17.960;2023-05-10T05:13:12;11.50;75.00
17726;DHT22;8983;53.156;17.960;2023-05-10T05:15:40;11.60;75.00
17726;DHT22;8983;53.156;17.960;2023-05-10T05:18:09;11.60;74.90
17726;DHT22;8983;53.156;17.960;2023-05-10T05:20:38;11.60;74.90
17726;DHT22;8983;53.156;17.960;2023-05-10T05:23:06;11.60;74.80
17726;DHT22;8983;53.156;17.960;2023-05-10T05:25:34;11.70;74.80
17726;DHT22;8983;53.156;17.960;2023-05-10T05:28:03;11.70;74.80
17726;DHT22;8983;53.156;17.960;2023-05-10T05:30:31;11.80;74.80
17726;DHT22;8983;53.156;17.960;2023-05-10T05:32:59;11.80;74.70
17726;DHT22;8983;53.156;17.960;2023-05-10T05:35:27;11.90;74.80
17726;DHT22;8983;53.156;17.960;2023-05-10T05:37:57;11.90;74.70
17726;DHT22;8983;53.156;17.960;2023-05-10T05:40:25;12.00;74.80
17726;DHT22;8983;53.156;17.960;2023-05-10T05:42:53;12.00;74.70
17726;DHT22;8983;53.156;17.960;2023-05-10T05:45:22;12.10;74.70
17726;DHT22;8983;53.156;17.960;2023-05-10T05:47:50;12.10;74.70
17726;DHT22;8983;53.156;17.960;2023-05-10T05:50:18;12.20;74.60
17726;DHT22;8983;53.156;17.960;2023-05-10T05:52:46;12.20;74.50
17726;DHT22;8983;53.156;17.960;2023-05-10T05:55:15;12.30;74.40
17726;DHT22;8983;53.156;17.960;2023-05-10T05:57:44;12.40;74.40
17726;DHT22;8983;53.156;17.960;2023-05-10T06:00:13;12.40;74.40
17726;DHT22;8983;53.156;17.960;2023-05-10T06:02:42;12.50;74.50
17726;DHT22;8983;53.156;17.960;2023-05-10T06:05:10;12.50;74.40
17726;DHT22;8983;53.156;17.960;2023-05-10T06:07:38;12.60;74.30
17726;DHT22;8983;53.156;17.960;2023-05-10T06:10:09;12.60;74.30
17726;DHT22;8983;53.156;17.960;2023-05-10T06:12:38;12.70;74.00
17726;DHT22;8983;53.156;17.960;2023-05-10T06:15:07;12.80;73.60
17726;DHT22;8983;53.156;17.960;2023-05-10T06:17:36;12.80;73.30
17726;DHT22;8983;53.156;17.960;2023-05-10T06:20:06;12.90;72.70
17726;DHT22;8983;53.156;17.960;2023-05-10T06:22:34;13.00;72.30
17726;DHT22;8983;53.156;17.960;2023-05-10T06:25:03;13.00;72.10
17726;DHT22;8983;53.156;17.960;2023-05-10T06:27:31;13.10;71.70
17726;DHT22;8983;53.156;17.960;2023-05-10T06:30:00;13.10;71.20
17726;DHT22;8983;53.156;17.960;2023-05-10T06:32:39;13.20;70.90
17726;DHT22;8983;53.156;17.960;2023-05-10T06:35:08;13.30;70.70
17726;DHT22;8983;53.156;17.960;2023-05-10T06:37:36;13.30;70.60
17726;DHT22;8983;53.156;17.960;2023-05-10T06:40:05;13.40;70.20
17726;DHT22;8983;53.156;17.960;2023-05-10T06:42:34;13.50;70.10
17726;DHT22;8983;53.156;17.960;2023-05-10T06:45:05;13.70;70.00
17726;DHT22;8983;53.156;17.960;2023-05-10T06:47:33;13.60;69.60
17726;DHT22;8983;53.156;17.960;2023-05-10T06:50:05;13.60;70.20
17726;DHT22;8983;53.156;17.960;2023-05-10T06:52:33;13.70;69.30
17726;DHT22;8983;53.156;17.960;2023-05-10T06:55:01;13.70;69.90
17726;DHT22;8983;53.156;17.960;2023-05-10T06:57:31;13.80;68.90
17726;DHT22;8983;53.156;17.960;2023-05-10T06:59:59;13.80;68.90
17726;DHT22;8983;53.156;17.960;2023-05-10T07:02:29;13.90;68.80
17726;DHT22;8983;53.156;17.960;2023-05-10T07:04:57;13.90;68.30
17726;DHT22;8983;53.156;17.960;2023-05-10T07:07:29;14.00;67.70
17726;DHT22;8983;53.156;17.960;2023-05-10T07:09:57;14.10;67.50
17726;DHT22;8983;53.156;17.960;2023-05-10T07:12:26;14.10;67.20
17726;DHT22;8983;53.156;17.960;2023-05-10T07:14:54;14.20;67.00
17726;DHT22;8983;53.156;17.960;2023-05-10T07:17:22;14.30;66.70
17726;DHT22;8983;53.156;17.960;2023-05-10T07:19:52;14.30;66.80
17726;DHT22;8983;53.156;17.960;2023-05-10T07:22:20;14.40;67.00
17726;DHT22;8983;53.156;17.960;2023-05-10T07:24:48;14.50;67.00
17726;DHT22;8983;53.156;17.960;2023-05-10T07:27:16;14.50;66.80
17726;DHT22;8983;53.156;17.960;2023-05-10T07:29:44;14.50;66.60
17726;DHT22;8983;53.156;17.960;2023-05-10T07:32:12;14.60;66.60
17726;DHT22;8983;53.156;17.960;2023-05-10T07:34:40;14.60;66.40
17726;DHT22;8983;53.156;17.960;2023-05-10T07:37:10;14.70;66.00
17726;DHT22;8983;53.156;17.960;2023-05-10T07:39:38;14.70;65.80
17726;DHT22;8983;53.156;17.960;2023-05-10T07:42:06;14.70;65.70
17726;DHT22;8983;53.156;17.960;2023-05-10T07:44:35;14.80;65.50
17726;DHT22;8983;53.156;17.960;2023-05-10T07:47:03;14.80;65.20
17726;DHT22;8983;53.156;17.960;2023-05-10T07:49:31;14.80;64.90
17726;DHT22;8983;53.156;17.960;2023-05-10T07:51:59;14.90;64.50
17726;DHT22;8983;53.156;17.960;2023-05-10T07:54:28;15.00;64.60
17726;DHT22;8983;53.156;17.960;2023-05-10T07:56:56;15.00;64.70
17726;DHT22;8983;53.156;17.960;2023-05-10T07:59:24;15.00;64.40
17726;DHT22;8983;53.156;17.960;2023-05-10T08:01:53;15.10;63.90
17726;DHT22;8983;53.156;17.960;2023-05-10T08:04:21;15.20;63.60
17726;DHT22;8983;53.156;17.960;2023-05-10T08:06:50;15.20;63.30
17726;DHT22;8983;53.156;17.960;2023-05-10T08:09:18;15.30;63.60
17726;DHT22;8983;53.156;17.960;2023-05-10T08:11:52;15.30;63.90
17726;DHT22;8983;53.156;17.960;2023-05-10T08:14:20;15.40;63.80
17726;DHT22;8983;53.156;17.960;2023-05-10T08:16:48;15.50;63.30
17726;DHT22;8983;53.156;17.960;2023-05-10T08:19:16;15.50;62.70
17726;DHT22;8983;53.156;17.960;2023-05-10T08:21:46;15.60;62.00
17726;DHT22;8983;53.156;17.960;2023-05-10T08:24:14;15.60;61.80
17726;DHT22;8983;53.156;17.960;2023-05-10T08:26:42;15.50;62.40
17726;DHT22;8983;53.156;17.960;2023-05-10T08:29:12;15.60;61.40
17726;DHT22;8983;53.156;17.960;2023-05-10T08:31:39;15.70;61.50
17726;DHT22;8983;53.156;17.960;2023-05-10T08:34:08;15.80;61.50
17726;DHT22;8983;53.156;17.960;2023-05-10T08:36:36;15.80;61.30
17726;DHT22;8983;53.156;17.960;2023-05-10T08:39:04;15.80;61.20
17726;DHT22;8983;53.156;17.960;2023-05-10T08:41:44;15.90;61.00
17726;DHT22;8983;53.156;17.960;2023-05-10T08:44:14;16.00;60.30
17726;DHT22;8983;53.156;17.960;2023-05-10T08:46:46;16.00;59.80
17726;DHT22;8983;53.156;17.960;2023-05-10T08:49:17;16.10;59.50
17726;DHT22;8983;53.156;17.960;2023-05-10T08:51:50;16.10;59.50
17726;DHT22;8983;53.156;17.960;2023-05-10T08:54:19;16.10;59.50
17726;DHT22;8983;53.156;17.960;2023-05-10T08:56:48;16.10;59.80
17726;DHT22;8983;53.156;17.960;2023-05-10T08:59:18;16.20;60.10
17726;DHT22;8983;53.156;17.960;2023-05-10T09:01:47;16.20;59.90
17726;DHT22;8983;53.156;17.960;2023-05-10T09:04:16;16.30;60.00
17726;DHT22;8983;53.156;17.960;2023-05-10T09:06:44;16.40;60.00
17726;DHT22;8983;53.156;17.960;2023-05-10T09:09:12;16.30;59.80
17726;DHT22;8983;53.156;17.960;2023-05-10T09:11:41;16.40;59.80
17726;DHT22;8983;53.156;17.960;2023-05-10T09:14:10;16.50;59.60
17726;DHT22;8983;53.156;17.960;2023-05-10T09:16:40;16.50;59.30
17726;DHT22;8983;53.156;17.960;2023-05-10T09:19:09;16.50;59.40
17726;DHT22;8983;53.156;17.960;2023-05-10T09:21:38;16.60;59.90
17726;DHT22;8983;53.156;17.960;2023-05-10T09:24:07;16.60;59.30
17726;DHT22;8983;53.156;17.960;2023-05-10T09:26:45;16.60;59.30
17726;DHT22;8983;53.156;17.960;2023-05-10T09:29:14;16.70;59.10
17726;DHT22;8983;53.156;17.960;2023-05-10T09:31:46;16.60;58.90
17726;DHT22;8983;53.156;17.960;2023-05-10T09:34:19;16.80;58.90
17726;DHT22;8983;53.156;17.960;2023-05-10T09:36:52;16.80;58.70
17726;DHT22;8983;53.156;17.960;2023-05-10T09:39:20;16.90;58.50
17726;DHT22;8983;53.156;17.960;2023-05-10T09:41:57;17.00;58.40
17726;DHT22;8983;53.156;17.960;2023-05-10T09:44:26;17.10;58.20
17726;DHT22;8983;53.156;17.960;2023-05-10T09:46:55;17.10;57.80
17726;DHT22;8983;53.156;17.960;2023-05-10T09:49:23;17.20;57.80
17726;DHT22;8983;53.156;17.960;2023-05-10T09:52:00;17.20;57.50
17726;DHT22;8983;53.156;17.960;2023-05-10T09:54:29;17.20;57.60
17726;DHT22;8983;53.156;17.960;2023-05-10T09:56:58;17.20;57.70
17726;DHT22;8983;53.156;17.960;2023-05-10T09:59:27;17.30;57.50
17726;DHT22;8983;53.156;17.960;2023-05-10T10:01:57;17.40;57.60
17726;DHT22;8983;53.156;17.960;2023-05-10T10:04:27;17.40;57.80
17726;DHT22;8983;53.156;17.960;2023-05-10T10:07:00;17.40;58.00
17726;DHT22;8983;53.156;17.960;2023-05-10T10:09:29;17.40;57.80
17726;DHT22;8983;53.156;17.960;2023-05-10T10:11:57;17.40;58.00
17726;DHT22;8983;53.156;17.960;2023-05-10T10:14:25;17.40;58.10
17726;DHT22;8983;53.156;17.960;2023-05-10T10:16:54;17.50;58.30
17726;DHT22;8983;53.156;17.960;2023-05-10T10:19:35;17.60;58.20
17726;DHT22;8983;53.156;17.960;2023-05-10T10:22:04;17.70;58.30
17726;DHT22;8983;53.156;17.960;2023-05-10T10:24:33;17.70;58.20
17726;DHT22;8983;53.156;17.960;2023-05-10T10:27:09;17.70;58.00
17726;DHT22;8983;53.156;17.960;2023-05-10T10:29:44;17.80;57.80
17726;DHT22;8983;53.156;17.960;2023-05-10T10:32:21;17.90;57.60
17726;DHT22;8983;53.156;17.960;2023-05-10T10:34:51;17.80;57.20
17726;DHT22;8983;53.156;17.960;2023-05-10T10:37:20;17.90;56.80
17726;DHT22;8983;53.156;17.960;2023-05-10T10:39:48;18.00;56.50
17726;DHT22;8983;53.156;17.960;2023-05-10T10:42:43;18.00;56.00
17726;DHT22;8983;53.156;17.960;2023-05-10T10:45:12;18.00;56.10
17726;DHT22;8983;53.156;17.960;2023-05-10T10:47:41;18.10;56.30
17726;DHT22;8983;53.156;17.960;2023-05-10T10:50:12;18.20;56.50
17726;DHT22;8983;53.156;17.960;2023-05-10T10:52:40;18.30;56.70
17726;DHT22;8983;53.156;17.960;2023-05-10T10:55:09;18.40;56.50
17726;DHT22;8983;53.156;17.960;2023-05-10T10:57:48;18.70;56.40
17726;DHT22;8983;53.156;17.960;2023-05-10T11:00:26;19.30;56.00
17726;DHT22;8983;53.156;17.960;2023-05-10T11:02:57;19.70;54.70
17726;DHT22;8983;53.156;17.960;2023-05-10T11:05:46;20.10;54.00
17726;DHT22;8983;53.156;17.960;2023-05-10T11:08:19;20.60;53.20
17726;DHT22;8983;53.156;17.960;2023-05-10T11:10:53;20.90;52.30
17726;DHT22;8983;53.156;17.960;2023-05-10T11:13:31;21.10;52.00
17726;DHT22;8983;53.156;17.960;2023-05-10T11:16:14;21.40;51.90
17726;DHT22;8983;53.156;17.960;2023-05-10T11:19:02;21.80;51.10
17726;DHT22;8983;53.156;17.960;2023-05-10T11:21:33;22.00;51.50
17726;DHT22;8983;53.156;17.960;2023-05-10T11:24:02;22.20;50.50
17726;DHT22;8983;53.156;17.960;2023-05-10T11:26:34;22.40;50.60
17726;DHT22;8983;53.156;17.960;2023-05-10T11:29:03;22.70;50.50
17726;DHT22;8983;53.156;17.960;2023-05-10T11:31:32;23.00;49.80
17726;DHT22;8983;53.156;17.960;2023-05-10T11:34:00;23.20;48.60
17726;DHT22;8983;53.156;17.960;2023-05-10T11:36:33;23.30;49.10
17726;DHT22;8983;53.156;17.960;2023-05-10T11:39:03;23.50;48.60
17726;DHT22;8983;53.156;17.960;2023-05-10T11:41:32;23.60;48.00
17726;DHT22;8983;53.156;17.960;2023-05-10T11:44:01;23.70;47.90
17726;DHT22;8983;53.156;17.960;2023-05-10T11:46:29;23.70;47.40
17726;DHT22;8983;53.156;17.960;2023-05-10T11:48:59;23.70;47.30
17726;DHT22;8983;53.156;17.960;2023-05-10T11:51:33;23.80;46.90
17726;DHT22;8983;53.156;17.960;2023-05-10T11:54:06;23.90;46.70
17726;DHT22;8983;53.156;17.960;2023-05-10T11:56:35;24.00;46.50
17726;DHT22;8983;53.156;17.960;2023-05-10T11:59:03;24.10;46.20
17726;DHT22;8983;53.156;17.960;2023-05-10T12:01:32;24.20;45.40
17726;DHT22;8983;53.156;17.960;2023-05-10T12:04:01;24.00;44.80
17726;DHT22;8983;53.156;17.960;2023-05-10T12:06:31;24.00;45.30
17726;DHT22;8983;53.156;17.960;2023-05-10T12:09:07;24.10;45.30
17726;DHT22;8983;53.156;17.960;2023-05-10T12:11:37;24.20;45.00
17726;DHT22;8983;53.156;17.960;2023-05-10T12:14:09;24.20;45.10
17726;DHT22;8983;53.156;17.960;2023-05-10T12:16:37;24.30;45.10
17726;DHT22;8983;53.156;17.960;2023-05-10T12:19:06;24.60;44.70
17726;DHT22;8983;53.156;17.960;2023-05-10T12:21:34;24.70;44.40
17726;DHT22;8983;53.156;17.960;2023-05-10T12:24:03;24.70;44.00
17726;DHT22;8983;53.156;17.960;2023-05-10T12:26:35;24.60;43.40
17726;DHT22;8983;53.156;17.960;2023-05-10T12:29:23;24.50;43.40
17726;DHT22;8983;53.156;17.960;2023-05-10T12:32:09;24.50;43.50
17726;DHT22;8983;53.156;17.960;2023-05-10T12:34:37;24.40;43.20
17726;DHT22;8983;53.156;17.960;2023-05-10T12:37:06;24.40;43.30
17726;DHT22;8983;53.156;17.960;2023-05-10T12:39:41;24.40;43.10
17726;DHT22;8983;53.156;17.960;2023-05-10T12:42:11;24.40;43.00
17726;DHT22;8983;53.156;17.960;2023-05-10T12:44:39;24.50;43.00
17726;DHT22;8983;53.156;17.960;2023-05-10T12:47:07;24.60;43.10
17726;DHT22;8983;53.156;17.960;2023-05-10T12:49:35;24.90;43.20
17726;DHT22;8983;53.156;17.960;2023-05-10T12:52:04;25.10;42.80
17726;DHT22;8983;53.156;17.960;2023-05-10T12:54:32;25.40;42.40
17726;DHT22;8983;53.156;17.960;2023-05-10T12:57:00;25.60;42.20
17726;DHT22;8983;53.156;17.960;2023-05-10T12:59:29;26.00;42.00
17726;DHT22;8983;53.156;17.960;2023-05-10T13:01:57;26.10;41.60
17726;DHT22;8983;53.156;17.960;2023-05-10T13:04:25;26.20;41.50
17726;DHT22;8983;53.156;17.960;2023-05-10T13:06:54;26.40;41.30
17726;DHT22;8983;53.156;17.960;2023-05-10T13:09:25;26.60;40.60
17726;DHT22;8983;53.156;17.960;2023-05-10T13:11:56;26.80;40.70
17726;DHT22;8983;53.156;17.960;2023-05-10T13:14:24;27.00;40.50
17726;DHT22;8983;53.156;17.960;2023-05-10T13:16:54;27.30;40.30
17726;DHT22;8983;53.156;17.960;2023-05-10T13:19:22;27.70;40.30
17726;DHT22;8983;53.156;17.960;2023-05-10T13:21:50;27.70;39.60
17726;DHT22;8983;53.156;17.960;2023-05-10T13:24:18;27.60;39.50
17726;DHT22;8983;53.156;17.960;2023-05-10T13:26:46;27.60;39.50
17726;DHT22;8983;53.156;17.960;2023-05-10T13:29:15;27.80;39.50
17726;DHT22;8983;53.156;17.960;2023-05-10T13:31:45;28.10;40.20
17726;DHT22;8983;53.156;17.960;2023-05-10T13:34:14;28.50;39.30
17726;DHT22;8983;53.156;17.960;2023-05-10T13:36:42;28.50;38.80
17726;DHT22;8983;53.156;17.960;2023-05-10T13:39:11;28.20;38.50
17726;DHT22;8983;53.156;17.960;2023-05-10T13:41:39;27.90;38.80
17726;DHT22;8983;53.156;17.960;2023-05-10T13:44:07;28.00;39.10
17726;DHT22;8983;53.156;17.960;2023-05-10T13:46:35;28.20;39.00
17726;DHT22;8983;53.156;17.960;2023-05-10T13:49:04;28.40;39.40
17726;DHT22;8983;53.156;17.960;2023-05-10T13:51:34;28.70;38.80
17726;DHT22;8983;53.156;17.960;2023-05-10T13:54:03;29.00;38.70
17726;DHT22;8983;53.156;17.960;2023-05-10T13:56:31;29.10;39.20
17726;DHT22;8983;53.156;17.960;2023-05-10T13:58:59;29.00;38.00
17726;DHT22;8983;53.156;17.960;2023-05-10T14:01:27;28.80;38.10
17726;DHT22;8983;53.156;17.960;2023-05-10T14:03:55;28.90;38.30
17726;DHT22;8983;53.156;17.960;2023-05-10T14:06:24;29.00;38.30
17726;DHT22;8983;53.156;17.960;2023-05-10T14:08:53;29.10;38.30
17726;DHT22;8983;53.156;17.960;2023-05-10T14:11:22;29.30;38.70
17726;DHT22;8983;53.156;17.960;2023-05-10T14:13:50;29.20;37.90
17726;DHT22;8983;53.156;17.960;2023-05-10T14:16:18;29.30;38.10
17726;DHT22;8983;53.156;17.960;2023-05-10T14:18:47;29.50;37.80
17726;DHT22;8983;53.156;17.960;2023-05-10T14:21:15;29.60;37.80
17726;DHT22;8983;53.156;17.960;2023-05-10T14:23:43;29.80;37.60
17726;DHT22;8983;53.156;17.960;2023-05-10T14:26:12;29.70;37.10
17726;DHT22;8983;53.156;17.960;2023-05-10T14:28:40;29.50;37.40
17726;DHT22;8983;53.156;17.960;2023-05-10T14:31:08;29.30;37.50
17726;DHT22;8983;53.156;17.960;2023-05-10T14:33:37;28.80;37.40
17726;DHT22;8983;53.156;17.960;2023-05-10T14:36:05;28.10;38.10
17726;DHT22;8983;53.156;17.960;2023-05-10T14:38:34;27.80;38.60
17726;DHT22;8983;53.156;17.960;2023-05-10T14:41:02;27.80;38.60
17726;DHT22;8983;53.156;17.960;2023-05-10T14:43:32;28.00;38.60
17726;DHT22;8983;53.156;17.960;2023-05-10T14:46:00;28.20;38.40
17726;DHT22;8983;53.156;17.960;2023-05-10T14:48:28;28.30;38.60
17726;DHT22;8983;53.156;17.960;2023-05-10T14:50:56;28.00;37.90
17726;DHT22;8983;53.156;17.960;2023-05-10T14:53:24;27.80;38.30
17726;DHT22;8983;53.156;17.960;2023-05-10T14:55:53;27.80;38.40
17726;DHT22;8983;53.156;17.960;2023-05-10T14:58:21;28.00;38.60
17726;DHT22;8983;53.156;17.960;2023-05-10T15:00:50;28.10;38.40
17726;DHT22;8983;53.156;17.960;2023-05-10T15:03:19;28.10;38.20
17726;DHT22;8983;53.156;17.960;2023-05-10T15:05:48;28.10;38.20
17726;DHT22;8983;53.156;17.960;2023-05-10T15:08:16;28.40;38.30
17726;DHT22;8983;53.156;17.960;2023-05-10T15:10:44;28.00;37.80
17726;DHT22;8983;53.156;17.960;2023-05-10T15:13:12;27.70;38.10
17726;DHT22;8983;53.156;17.960;2023-05-10T15:15:40;27.60;38.40
17726;DHT22;8983;53.156;17.960;2023-05-10T15:18:10;27.70;38.70
17726;DHT22;8983;53.156;17.960;2023-05-10T15:20:38;27.90;38.70
17726;DHT22;8983;53.156;17.960;2023-05-10T15:23:06;28.10;38.60
17726;DHT22;8983;53.156;17.960;2023-05-10T15:25:34;28.30;38.50
17726;DHT22;8983;53.156;17.960;2023-05-10T15:28:04;28.30;38.30
17726;DHT22;8983;53.156;17.960;2023-05-10T15:30:32;28.10;38.10
17726;DHT22;8983;53.156;17.960;2023-05-10T15:33:00;28.10;38.40
17726;DHT22;8983;53.156;17.960;2023-05-10T15:35:30;28.20;38.30
17726;DHT22;8983;53.156;17.960;2023-05-10T15:37:58;28.50;38.20
17726;DHT22;8983;53.156;17.960;2023-05-10T15:40:26;28.70;38.10
17726;DHT22;8983;53.156;17.960;2023-05-10T15:42:54;28.90;37.60
17726;DHT22;8983;53.156;17.960;2023-05-10T15:45:22;28.80;37.60
17726;DHT22;8983;53.156;17.960;2023-05-10T15:47:50;28.50;37.30
17726;DHT22;8983;53.156;17.960;2023-05-10T15:50:18;28.30;37.40
17726;DHT22;8983;53.156;17.960;2023-05-10T15:52:48;28.40;37.70
17726;DHT22;8983;53.156;17.960;2023-05-10T15:55:16;28.50;37.60